Time;durP1;ratioP1;P1;durP2;ratioP2;P2;SDS_P1;SDS_P2;PMS_P1;PMS_P2;Temp;Humidity;BMP_temperature;BMP_pressure;BME280_temperature;BME280_humidity;BME280_pressure;Samples;Min_cycle;Max_cycle;Signal;HPM_P1;HPM_P2
2022/10/31 00:00:29;;;;;;;20.58;12.10;;;;;;;12.41;100.00;101921.97;4969523;28;20501;-67
2022/10/31 00:02:54;;;;;;;14.20;10.73;;;;;;;12.41;100.00;101934.09;4963727;28;20498;-67
2022/10/31 00:05:20;;;;;;;15.48;10.40;;;;;;;12.39;100.00;101931.44;4963557;28;20030;-67
2022/10/31 00:07:46;;;;;;;15.98;11.45;;;;;;;12.38;100.00;101940.03;4969626;28;20023;-67
2022/10/31 00:10:11;;;;;;;12.50;10.65;;;;;;;12.37;100.00;101938.28;4969663;28;20038;-67
2022/10/31 00:12:36;;;;;;;15.85;12.40;;;;;;;12.35;100.00;101929.53;4958649;28;20114;-67
2022/10/31 00:15:01;;;;;;;15.98;11.95;;;;;;;12.33;100.00;101937.28;4962024;28;20057;-67
2022/10/31 00:17:27;;;;;;;14.77;11.50;;;;;;;12.31;100.00;101932.81;4978029;28;20022;-67
2022/10/31 00:19:52;;;;;;;19.55;12.05;;;;;;;12.30;100.00;101934.56;4951063;28;20375;-67
2022/10/31 00:22:17;;;;;;;16.10;10.70;;;;;;;12.28;100.00;101937.88;4962169;28;20531;-67
2022/10/31 00:24:42;;;;;;;16.95;11.98;;;;;;;12.26;100.00;101930.03;4968663;28;20065;-67
2022/10/31 00:27:08;;;;;;;16.23;11.80;;;;;;;12.26;100.00;101937.84;4960405;28;20475;-67
2022/10/31 00:29:33;;;;;;;18.63;12.07;;;;;;;12.24;100.00;101942.97;4951389;28;20055;-66
2022/10/31 00:31:58;;;;;;;14.45;11.70;;;;;;;12.22;100.00;101949.81;4969096;28;20035;-67
2022/10/31 00:34:24;;;;;;;20.10;11.93;;;;;;;12.20;100.00;101934.94;4969205;28;20035;-67
2022/10/31 00:36:49;;;;;;;14.55;10.30;;;;;;;12.14;100.00;101930.41;4969087;28;20030;-67
2022/10/31 00:39:14;;;;;;;16.92;11.60;;;;;;;12.10;100.00;101938.88;4969466;28;20035;-66
2022/10/31 00:41:39;;;;;;;14.75;12.07;;;;;;;12.06;100.00;101936.94;4955532;28;20035;-66
2022/10/31 00:44:05;;;;;;;13.50;11.68;;;;;;;12.01;100.00;101932.44;4968867;28;20562;-67
2022/10/31 00:46:30;;;;;;;15.18;11.23;;;;;;;11.96;100.00;101923.53;4954887;28;20071;-67
2022/10/31 00:48:55;;;;;;;13.15;11.30;;;;;;;11.91;100.00;101927.63;4956522;28;20093;-67
2022/10/31 00:51:20;;;;;;;16.27;12.55;;;;;;;11.87;100.00;101921.41;4969459;28;20031;-67
2022/10/31 00:53:46;;;;;;;19.30;11.57;;;;;;;11.84;100.00;101923.91;4968842;28;20045;-67
2022/10/31 00:56:11;;;;;;;16.38;11.75;;;;;;;11.81;100.00;101928.97;4980041;28;20022;-67
2022/10/31 00:58:36;;;;;;;17.42;11.93;;;;;;;11.77;100.00;101927.94;4971737;28;20023;-67
2022/10/31 01:01:03;;;;;;;13.32;11.77;;;;;;;11.74;100.00;101925.22;4968539;28;20031;-66
2022/10/31 01:03:31;;;;;;;15.35;11.18;;;;;;;11.73;100.00;101923.41;4968509;28;20030;-66
2022/10/31 01:06:06;;;;;;;16.95;11.63;;;;;;;11.71;100.00;101938.03;4969319;28;20031;-67
2022/10/31 01:08:32;;;;;;;14.68;10.98;;;;;;;11.69;100.00;101937.09;4968461;28;20036;-67
2022/10/31 01:11:02;;;;;;;17.38;12.45;;;;;;;11.68;100.00;101931.81;4962887;28;20086;-67
2022/10/31 01:13:27;;;;;;;16.70;13.00;;;;;;;11.68;100.00;101921.44;4958833;28;20425;-67
2022/10/31 01:15:57;;;;;;;16.98;12.45;;;;;;;11.67;100.00;101904.09;4968515;28;20489;-67
2022/10/31 01:18:23;;;;;;;15.68;12.23;;;;;;;11.67;100.00;101902.38;4959417;28;20470;-67
2022/10/31 01:21:08;;;;;;;13.80;12.45;;;;;;;11.65;100.00;101909.22;4985777;28;20078;-67
2022/10/31 01:23:35;;;;;;;16.77;11.85;;;;;;;11.61;100.00;101891.72;4955554;28;20018;-66
2022/10/31 01:26:01;;;;;;;14.85;12.02;;;;;;;11.60;100.00;101902.94;4979049;28;20077;-67
2022/10/31 01:28:26;;;;;;;13.43;11.90;;;;;;;11.59;100.00;101911.53;4981837;28;20045;-66
2022/10/31 01:30:52;;;;;;;17.33;12.80;;;;;;;11.55;100.00;101907.03;4985830;28;20057;-67
2022/10/31 01:33:17;;;;;;;17.77;13.18;;;;;;;11.52;100.00;101918.16;4959005;28;20030;-67
2022/10/31 01:35:43;;;;;;;17.20;12.93;;;;;;;11.48;100.00;101911.03;4963794;28;20026;-66
2022/10/31 01:38:08;;;;;;;20.15;13.35;;;;;;;11.45;100.00;101917.00;4984995;28;20040;-66
2022/10/31 01:40:33;;;;;;;15.85;12.10;;;;;;;11.42;100.00;101924.66;4972620;28;20053;-67
2022/10/31 01:42:58;;;;;;;20.17;12.25;;;;;;;11.41;100.00;101930.63;4974351;28;20041;-66
2022/10/31 01:45:24;;;;;;;21.27;13.45;;;;;;;11.40;100.00;101923.69;4982416;28;20046;-66
2022/10/31 01:47:49;;;;;;;15.50;12.75;;;;;;;11.38;100.00;101925.31;4985672;28;20030;-67
2022/10/31 01:50:30;;;;;;;15.75;11.30;;;;;;;11.37;100.00;101921.81;4970848;28;20378;-67
2022/10/31 01:52:57;;;;;;;15.88;13.23;;;;;;;11.37;100.00;101918.34;4977675;28;20031;-67
2022/10/31 01:55:29;;;;;;;18.17;12.63;;;;;;;11.36;100.00;101917.47;4980296;28;20069;-67
2022/10/31 01:57:59;;;;;;;16.27;12.00;;;;;;;11.33;100.00;101921.63;4978832;28;20049;-66
2022/10/31 02:00:24;;;;;;;14.52;11.85;;;;;;;11.30;100.00;101922.34;4967809;28;20027;-66
2022/10/31 02:02:50;;;;;;;13.85;12.35;;;;;;;11.27;100.00;101917.03;4973986;28;20463;-66
2022/10/31 02:05:20;;;;;;;13.32;11.77;;;;;;;11.23;100.00;101918.59;4949039;28;20035;-67
2022/10/31 02:08:02;;;;;;;12.35;11.13;;;;;;;11.20;100.00;101921.03;4965993;28;20066;-67
2022/10/31 02:10:30;;;;;;;16.02;12.82;;;;;;;11.19;100.00;101906.28;4954036;28;20497;-67
2022/10/31 02:12:59;;;;;;;17.73;11.60;;;;;;;11.15;100.00;101906.97;4961672;28;20158;-67
2022/10/31 02:15:24;;;;;;;15.57;11.88;;;;;;;11.14;100.00;101907.78;4958922;28;20031;-66
2022/10/31 02:17:50;;;;;;;15.05;12.07;;;;;;;11.09;100.00;101899.78;4966340;28;20410;-67
2022/10/31 02:20:25;;;;;;;16.08;12.32;;;;;;;11.05;100.00;101898.75;4984166;28;20022;-66
2022/10/31 02:23:11;;;;;;;15.40;12.07;;;;;;;11.01;100.00;101901.16;4969576;28;20027;-66
2022/10/31 02:25:46;;;;;;;13.15;11.45;;;;;;;10.98;100.00;101899.28;4976662;28;20106;-66
2022/10/31 02:28:54;;;;;;;13.65;11.13;;;;;;;10.94;100.00;101899.94;4984506;28;20058;-66
2022/10/31 02:31:40;;;;;;;12.80;10.60;;;;;;;10.90;100.00;101900.63;4969964;28;20493;-67
2022/10/31 02:34:23;;;;;;;16.85;12.40;;;;;;;10.83;100.00;101903.75;4967126;28;20031;-66
2022/10/31 02:37:07;;;;;;;13.55;11.25;;;;;;;10.76;100.00;101903.44;4982797;28;20113;-67
2022/10/31 02:39:48;;;;;;;13.93;11.23;;;;;;;10.71;100.00;101907.50;4962565;28;20030;-66
2022/10/31 02:42:32;;;;;;;13.88;12.38;;;;;;;10.65;100.00;101904.63;4952454;28;20415;-67
2022/10/31 02:45:03;;;;;;;13.23;10.73;;;;;;;10.60;100.00;101900.91;4952048;28;20500;-66
2022/10/31 02:47:34;;;;;;;13.40;10.82;;;;;;;10.58;100.00;101908.59;4957505;28;20482;-67
2022/10/31 02:50:11;;;;;;;13.35;11.75;;;;;;;10.56;100.00;101897.28;4961642;28;20037;-67
2022/10/31 02:52:36;;;;;;;16.58;12.25;;;;;;;10.54;100.00;101898.94;4972497;28;20446;-67
2022/10/31 02:55:26;;;;;;;15.52;11.80;;;;;;;10.51;100.00;101891.88;4960547;28;20109;-66
2022/10/31 02:57:56;;;;;;;16.95;12.77;;;;;;;10.49;100.00;101893.50;4966707;28;20086;-66
2022/10/31 03:00:21;;;;;;;17.92;12.50;;;;;;;10.47;100.00;101900.28;4955550;28;20025;-66
2022/10/31 03:03:27;;;;;;;16.90;12.68;;;;;;;10.46;100.00;101901.09;4971022;28;20027;-66
2022/10/31 03:06:04;;;;;;;19.83;13.35;;;;;;;10.47;100.00;101905.44;4983257;28;20037;-66
2022/10/31 03:08:54;;;;;;;14.52;12.60;;;;;;;10.44;100.00;101902.72;4984140;28;20341;-66
2022/10/31 03:11:23;;;;;;;15.82;12.13;;;;;;;10.42;100.00;101902.66;4970684;28;20077;-66
2022/10/31 03:14:01;;;;;;;16.15;12.82;;;;;;;10.43;100.00;101904.41;4962090;28;20031;-67
2022/10/31 03:16:51;;;;;;;14.23;12.30;;;;;;;10.43;100.00;101906.13;4970719;28;20056;-66
2022/10/31 03:19:22;;;;;;;13.95;11.88;;;;;;;10.43;100.00;101903.53;4984583;28;20019;-66
2022/10/31 03:21:54;;;;;;;16.95;12.63;;;;;;;10.42;100.00;101906.94;4971007;28;20079;-66
2022/10/31 03:24:22;;;;;;;12.90;11.18;;;;;;;10.41;100.00;101908.66;4956398;28;20038;-66
2022/10/31 03:26:51;;;;;;;13.65;10.88;;;;;;;10.40;100.00;101905.97;4971105;28;20030;-66
2022/10/31 03:29:21;;;;;;;13.65;10.75;;;;;;;10.36;100.00;101896.28;4957028;28;20031;-67
2022/10/31 03:32:13;;;;;;;15.13;10.88;;;;;;;10.32;100.00;101900.41;4961308;28;20031;-67
2022/10/31 03:34:41;;;;;;;15.75;11.60;;;;;;;10.30;100.00;101908.13;4971615;28;20146;-66
2022/10/31 03:37:09;;;;;;;15.10;11.65;;;;;;;10.27;100.00;101897.56;4959347;28;20019;-66
2022/10/31 03:39:36;;;;;;;14.50;12.05;;;;;;;10.23;100.00;101906.03;4952101;28;20042;-66
2022/10/31 03:42:08;;;;;;;13.32;10.68;;;;;;;10.19;100.00;101891.13;4954381;28;20030;-67
2022/10/31 03:44:35;;;;;;;15.98;11.80;;;;;;;10.17;100.00;101900.53;4965097;28;20467;-66
2022/10/31 03:47:03;;;;;;;15.30;11.27;;;;;;;10.15;100.00;101897.84;4950128;28;22141;-66
2022/10/31 03:49:30;;;;;;;13.45;10.60;;;;;;;10.13;100.00;101898.59;4960563;28;20537;-66
2022/10/31 03:52:02;;;;;;;15.43;10.98;;;;;;;10.08;100.00;101901.84;4970403;28;20110;-66
2022/10/31 03:54:42;;;;;;;12.85;11.38;;;;;;;10.02;100.00;101890.28;4962971;28;20114;-66
2022/10/31 03:57:34;;;;;;;12.90;10.38;;;;;;;9.97;100.00;101887.44;4966489;28;20027;-67
2022/10/31 04:00:05;;;;;;;13.90;10.00;;;;;;;9.94;100.00;101892.47;4969983;28;20380;-66
2022/10/31 04:02:32;;;;;;;;;;;;;;;9.93;100.00;101890.72;4967661;28;20110;-66
2022/10/31 04:04:58;;;;;;;15.48;11.50;;;;;;;9.90;100.00;101895.69;4958975;28;20006;-66
2022/10/31 04:07:29;;;;;;;14.63;10.60;;;;;;;9.88;100.00;101897.31;4969721;28;20038;-66
2022/10/31 04:09:57;;;;;;;16.60;11.98;;;;;;;9.85;100.00;101903.25;4962939;28;20476;-66
2022/10/31 04:12:25;;;;;;;16.50;12.55;;;;;;;9.83;100.00;101895.41;4951428;28;20031;-67
2022/10/31 04:14:52;;;;;;;15.15;12.02;;;;;;;9.83;100.00;101898.00;4963640;28;20111;-66
2022/10/31 04:17:21;;;;;;;15.93;12.15;;;;;;;9.80;100.00;101895.25;4963072;28;20876;-66
2022/10/31 04:19:46;;;;;;;16.92;13.93;;;;;;;9.81;100.00;101899.59;4969536;28;20015;-66
2022/10/31 04:22:12;;;;;;;17.73;12.63;;;;;;;9.81;100.00;101902.19;4970119;28;20019;-66
2022/10/31 04:24:39;;;;;;;14.68;12.80;;;;;;;9.82;100.00;101897.91;4983157;28;20054;-67
2022/10/31 04:27:04;;;;;;;15.60;12.05;;;;;;;9.79;100.00;101903.81;4969777;28;20038;-66
2022/10/31 04:29:30;;;;;;;14.45;12.90;;;;;;;9.81;100.00;101902.19;4968399;28;20031;-66
2022/10/31 04:31:55;;;;;;;18.45;13.23;;;;;;;9.82;100.00;101908.28;4956856;28;20019;-66
2022/10/31 04:34:20;;;;;;;15.63;12.18;;;;;;;9.80;100.00;101895.25;4970056;28;20057;-66
2022/10/31 04:36:46;;;;;;;16.05;12.38;;;;;;;9.81;100.00;101897.00;4955934;28;20057;-66
2022/10/31 04:39:11;;;;;;;14.90;12.43;;;;;;;9.83;100.00;101900.56;4969567;28;20501;-66
2022/10/31 04:41:36;;;;;;;15.68;12.75;;;;;;;9.88;100.00;101902.50;4966659;28;20034;-66
2022/10/31 04:44:01;;;;;;;20.48;14.27;;;;;;;9.90;100.00;101906.06;4969242;28;20358;-66
2022/10/31 04:46:27;;;;;;;18.75;15.63;;;;;;;9.93;100.00;101901.94;4955213;28;20463;-66
2022/10/31 04:48:52;;;;;;;16.50;13.50;;;;;;;9.98;100.00;101894.41;4975355;28;20101;-66
2022/10/31 04:51:17;;;;;;;16.48;14.10;;;;;;;10.00;100.00;101890.19;4982755;28;20462;-66
2022/10/31 04:53:43;;;;;;;19.50;16.13;;;;;;;10.03;100.00;101898.13;4968324;28;20456;-66
2022/10/31 04:56:08;;;;;;;19.25;15.57;;;;;;;10.07;100.00;101897.44;4978875;28;20080;-66
2022/10/31 04:58:33;;;;;;;19.27;14.30;;;;;;;10.05;100.00;101891.34;4986859;28;20034;-67
2022/10/31 05:00:58;;;;;;;16.73;14.23;;;;;;;10.04;100.00;101894.72;4961702;28;20147;-66
2022/10/31 05:03:24;;;;;;;16.63;13.65;;;;;;;10.03;100.00;101892.94;4976547;28;20454;-67
2022/10/31 05:05:49;;;;;;;18.52;15.10;;;;;;;10.01;100.00;101888.50;4974014;28;20020;-66
2022/10/31 05:08:14;;;;;;;22.45;15.45;;;;;;;10.02;100.00;101896.34;4976881;28;20026;-66
2022/10/31 05:10:40;;;;;;;19.98;16.05;;;;;;;10.00;100.00;101885.00;4955043;28;20041;-66
2022/10/31 05:13:06;;;;;;;22.45;16.83;;;;;;;10.01;100.00;101879.03;4966106;28;20022;-66
2022/10/31 05:15:32;;;;;;;22.60;16.75;;;;;;;10.03;100.00;101881.69;4968870;28;20033;-66
2022/10/31 05:17:57;;;;;;;22.05;16.42;;;;;;;10.01;100.00;101879.03;4960711;28;20022;-66
2022/10/31 05:20:28;;;;;;;18.58;16.08;;;;;;;10.00;100.00;101878.97;4984631;28;20785;-67
2022/10/31 05:22:55;;;;;;;17.52;15.50;;;;;;;9.95;100.00;101883.88;4960507;28;20181;-66
2022/10/31 05:25:23;;;;;;;20.23;16.95;;;;;;;9.94;100.00;101889.88;4984667;28;20054;-66
2022/10/31 05:27:49;;;;;;;22.27;16.02;;;;;;;9.90;100.00;101875.00;4981381;28;20023;-66
2022/10/31 05:30:21;;;;;;;17.65;15.82;;;;;;;9.87;100.00;101882.59;4972894;28;20023;-66
2022/10/31 05:32:48;;;;;;;20.85;16.27;;;;;;;9.86;100.00;101884.28;4974777;28;20022;-66
2022/10/31 05:35:17;;;;;;;23.98;18.08;;;;;;;9.84;100.00;101873.88;4972863;28;20116;-66
2022/10/31 05:37:42;;;;;;;20.13;15.90;;;;;;;9.84;100.00;101872.97;4973567;28;20085;-66
2022/10/31 05:40:10;;;;;;;18.02;14.18;;;;;;;9.81;100.00;101873.72;4965231;28;20479;-66
2022/10/31 05:42:38;;;;;;;22.52;16.00;;;;;;;9.81;100.00;101871.13;4952657;28;20027;-66
2022/10/31 05:45:04;;;;;;;17.95;15.98;;;;;;;9.82;100.00;101875.47;4974522;28;20520;-66
2022/10/31 05:47:29;;;;;;;19.83;16.33;;;;;;;9.82;100.00;101870.31;4966581;28;20144;-66
2022/10/31 05:49:55;;;;;;;23.05;17.42;;;;;;;9.79;100.00;101867.56;4986479;28;20030;-66
2022/10/31 05:52:20;;;;;;;18.05;15.98;;;;;;;9.78;100.00;101870.97;4973164;28;20463;-66
2022/10/31 05:54:45;;;;;;;18.63;16.73;;;;;;;9.76;100.00;101859.66;4986440;28;20034;-66
2022/10/31 05:57:10;;;;;;;20.52;16.33;;;;;;;9.74;100.00;101861.25;4964002;28;20471;-66
2022/10/31 05:59:36;;;;;;;20.27;18.00;;;;;;;9.72;100.00;101855.13;4958875;28;20061;-66
2022/10/31 06:02:01;;;;;;;20.98;18.27;;;;;;;9.70;100.00;101851.56;4954064;28;20035;-66
2022/10/31 06:04:27;;;;;;;23.63;17.73;;;;;;;9.68;100.00;101859.25;4956084;28;20403;-66
2022/10/31 06:06:53;;;;;;;19.48;15.68;;;;;;;9.64;100.00;101859.91;4962141;28;20065;-66
2022/10/31 06:09:18;;;;;;;21.30;15.95;;;;;;;9.60;100.00;101851.09;4953915;28;20042;-66
2022/10/31 06:11:43;;;;;;;20.70;16.90;;;;;;;9.60;100.00;101855.38;4967736;28;20034;-66
2022/10/31 06:14:09;;;;;;;22.83;16.85;;;;;;;9.57;100.00;101850.91;4968408;28;20495;-66
2022/10/31 06:16:34;;;;;;;21.40;17.63;;;;;;;9.56;100.00;101846.56;4954293;28;20027;-66
2022/10/31 06:18:59;;;;;;;20.90;16.48;;;;;;;9.55;100.00;101847.34;4968142;28;20635;-66
2022/10/31 06:21:25;;;;;;;20.52;16.98;;;;;;;9.52;100.00;101849.78;4965730;28;20117;-67
2022/10/31 06:23:50;;;;;;;21.73;15.68;;;;;;;9.51;100.00;101855.78;4966936;28;20074;-66
2022/10/31 06:26:16;;;;;;;20.45;16.42;;;;;;;9.47;100.00;101854.72;4966150;28;20122;-67
2022/10/31 06:28:41;;;;;;;18.45;16.13;;;;;;;9.45;100.00;101847.69;4952126;28;20444;-66
2022/10/31 06:31:06;;;;;;;20.77;18.02;;;;;;;9.43;100.00;101846.69;4953153;28;20031;-66
2022/10/31 06:33:33;;;;;;;19.13;15.50;;;;;;;9.41;100.00;101850.94;4962051;28;20046;-66
2022/10/31 06:35:58;;;;;;;19.27;14.40;;;;;;;9.41;100.00;101849.22;4964472;28;20031;-65
2022/10/31 06:38:25;;;;;;;18.38;15.55;;;;;;;9.42;100.00;101865.63;4954071;28;20403;-65
2022/10/31 06:40:51;;;;;;;18.02;15.77;;;;;;;9.43;100.00;101862.22;4955643;28;20490;-65
2022/10/31 06:43:16;;;;;;;20.90;17.27;;;;;;;9.44;100.00;101869.19;4959831;28;20045;-65
2022/10/31 06:45:41;;;;;;;23.70;18.17;;;;;;;9.45;100.00;101868.38;4952222;28;20620;-65
2022/10/31 06:48:07;;;;;;;20.23;16.75;;;;;;;9.45;100.00;101865.78;4949847;28;20086;-65
2022/10/31 06:50:32;;;;;;;21.30;16.38;;;;;;;9.44;100.00;101859.75;4952682;28;20054;-65
2022/10/31 06:52:58;;;;;;;20.90;17.85;;;;;;;9.46;100.00;101857.25;4951709;28;20035;-65
2022/10/31 06:55:25;;;;;;;20.60;17.02;;;;;;;9.47;100.00;101853.84;4949547;28;20062;-65
2022/10/31 06:57:53;;;;;;;24.02;16.63;;;;;;;9.46;100.00;101858.09;4948427;28;20038;-67
2022/10/31 07:00:19;;;;;;;20.67;16.90;;;;;;;9.48;100.00;101853.91;4949874;28;20023;-67
2022/10/31 07:02:56;;;;;;;19.83;16.23;;;;;;;9.51;100.00;101863.53;4950235;28;20058;-67
2022/10/31 07:05:21;;;;;;;23.38;16.52;;;;;;;9.54;100.00;101863.69;4951925;28;20371;-67
2022/10/31 07:07:47;;;;;;;21.05;16.83;;;;;;;9.55;100.00;101856.84;4962164;28;20023;-67
2022/10/31 07:10:12;;;;;;;23.63;18.25;;;;;;;9.56;100.00;101854.31;4947899;28;20114;-67
2022/10/31 07:12:37;;;;;;;27.48;18.20;;;;;;;9.57;100.00;101845.72;4949891;28;20042;-67
2022/10/31 07:15:03;;;;;;;23.15;17.35;;;;;;;9.59;100.00;101853.56;4948852;28;20086;-67
2022/10/31 07:17:29;;;;;;;18.60;16.35;;;;;;;9.61;100.00;101852.84;4949970;28;20031;-67
2022/10/31 07:19:54;;;;;;;18.88;16.67;;;;;;;9.66;100.00;101858.25;4949670;28;20027;-67
2022/10/31 07:22:19;;;;;;;19.60;17.48;;;;;;;9.70;100.00;101859.31;4949341;28;20042;-66
2022/10/31 07:24:45;;;;;;;19.40;17.52;;;;;;;9.73;100.00;101855.19;4962696;28;20035;-66
2022/10/31 07:27:10;;;;;;;22.92;18.27;;;;;;;9.79;100.00;101854.63;4955925;28;20067;-65
2022/10/31 07:29:35;;;;;;;21.60;17.83;;;;;;;9.82;100.00;101856.50;4953177;28;20059;-65
2022/10/31 07:32:01;;;;;;;24.75;18.90;;;;;;;9.87;100.00;101861.91;4955507;28;20093;-65
2022/10/31 07:34:26;;;;;;;23.75;18.55;;;;;;;9.90;100.00;101860.34;4955345;28;20522;-65
2022/10/31 07:36:52;;;;;;;20.27;18.05;;;;;;;9.93;100.00;101873.44;4950212;28;20023;-65
2022/10/31 07:39:17;;;;;;;21.92;18.92;;;;;;;9.97;100.00;101871.91;4952758;28;20050;-65
2022/10/31 07:41:42;;;;;;;21.17;18.88;;;;;;;10.00;100.00;101871.19;4954005;28;20030;-65
2022/10/31 07:44:07;;;;;;;22.20;18.83;;;;;;;10.04;100.00;101863.63;4954841;28;20078;-65
2022/10/31 07:46:33;;;;;;;22.35;19.27;;;;;;;10.08;100.00;101870.75;4951122;28;20032;-65
2022/10/31 07:48:58;;;;;;;21.27;18.58;;;;;;;10.13;100.00;101870.13;4950677;28;20019;-65
2022/10/31 07:51:23;;;;;;;19.73;17.17;;;;;;;10.17;100.00;101870.34;4949795;28;20501;-65
2022/10/31 07:53:49;;;;;;;22.92;19.40;;;;;;;10.21;100.00;101861.91;4950719;28;20337;-65
2022/10/31 07:56:14;;;;;;;21.98;18.90;;;;;;;10.26;100.00;101864.72;4952965;28;20033;-65
2022/10/31 07:58:40;;;;;;;24.88;20.60;;;;;;;10.31;100.00;101868.44;4954603;28;20030;-65
2022/10/31 08:01:05;;;;;;;26.13;21.27;;;;;;;10.36;100.00;101870.38;4954206;28;20583;-65
2022/10/31 08:03:30;;;;;;;29.40;22.40;;;;;;;10.42;100.00;101876.72;4956648;28;20094;-65
2022/10/31 08:05:56;;;;;;;26.35;21.92;;;;;;;10.48;100.00;101873.59;4950604;28;20031;-65
2022/10/31 08:08:21;;;;;;;25.50;21.70;;;;;;;10.54;100.00;101879.06;4950093;28;20457;-65
2022/10/31 08:10:47;;;;;;;26.20;23.13;;;;;;;10.63;100.00;101882.94;4948853;28;20055;-65
2022/10/31 08:13:13;;;;;;;26.73;23.70;;;;;;;10.69;100.00;101880.63;4959269;28;20482;-65
2022/10/31 08:15:41;;;;;;;29.08;24.70;;;;;;;10.74;100.00;101878.28;4951554;28;20023;-65
2022/10/31 08:18:11;;;;;;;33.00;26.52;;;;;;;10.81;100.00;101877.75;4951871;28;20023;-65
2022/10/31 08:20:37;;;;;;;34.88;26.90;;;;;;;10.90;100.00;101877.28;4951490;28;20042;-65
2022/10/31 08:23:04;;;;;;;32.67;26.70;;;;;;;10.97;100.00;101874.19;4960966;28;20486;-65
2022/10/31 08:25:32;;;;;;;38.58;28.63;;;;;;;11.05;100.00;101865.03;4950956;28;20430;-65
2022/10/31 08:27:57;;;;;;;37.90;27.48;;;;;;;11.12;100.00;101860.13;4949569;28;20047;-65
2022/10/31 08:30:25;;;;;;;35.90;29.83;;;;;;;11.19;100.00;101853.53;4949949;28;20023;-65
2022/10/31 08:33:20;;;;;;;36.40;29.42;;;;;;;11.32;100.00;101878.31;4953308;28;20382;-65
2022/10/31 08:35:45;;;;;;;40.20;32.00;;;;;;;11.45;100.00;101880.66;4950434;28;20038;-65
2022/10/31 08:38:12;;;;;;;36.90;31.85;;;;;;;11.61;100.00;101870.94;4950679;28;20015;-65
2022/10/31 08:40:37;;;;;;;38.00;32.90;;;;;;;11.73;100.00;101870.59;4949369;28;20038;-65
2022/10/31 08:43:05;;;;;;;36.42;31.83;;;;;;;11.79;100.00;101854.38;4950811;28;20043;-66
2022/10/31 08:45:33;;;;;;;39.45;32.20;;;;;;;11.82;100.00;101844.16;4951896;28;20122;-66
2022/10/31 08:48:04;;;;;;;35.75;30.38;;;;;;;11.82;100.00;101826.84;4952496;28;20059;-65
2022/10/31 08:50:31;;;;;;;36.92;31.40;;;;;;;11.82;100.00;101808.66;4951975;28;20023;-65
2022/10/31 08:53:04;;;;;;;41.97;34.00;;;;;;;11.82;100.00;101810.41;4953740;28;20035;-65
2022/10/31 08:55:30;;;;;;;43.63;33.55;;;;;;;11.82;100.00;101813.00;4956534;28;20038;-65
2022/10/31 08:57:57;;;;;;;48.42;36.30;;;;;;;11.83;100.00;101804.38;4956462;28;20302;-65
2022/10/31 09:00:22;;;;;;;48.13;34.63;;;;;;;11.84;100.00;101816.53;4948928;28;20059;-65
2022/10/31 09:02:48;;;;;;;43.85;35.67;;;;;;;11.86;100.00;101830.47;4954979;28;20110;-66
2022/10/31 09:05:13;;;;;;;48.92;38.17;;;;;;;11.88;100.00;101824.53;4951181;28;20059;-65
2022/10/31 09:07:38;;;;;;;48.42;37.00;;;;;;;11.89;100.00;101820.22;4951277;28;20027;-65
2022/10/31 09:10:04;;;;;;;44.90;35.55;;;;;;;11.93;100.00;101814.31;4953160;28;20028;-65
2022/10/31 09:12:29;;;;;;;43.22;33.47;;;;;;;11.95;100.00;101815.28;4951743;28;20375;-65
2022/10/31 09:14:54;;;;;;;42.25;34.83;;;;;;;11.97;100.00;101824.03;4951147;28;20019;-65
2022/10/31 09:17:20;;;;;;;43.53;34.25;;;;;;;12.03;100.00;101833.78;4953252;28;20023;-66
2022/10/31 09:19:45;;;;;;;46.33;34.92;;;;;;;12.13;100.00;101850.66;4952961;28;20023;-65
2022/10/31 09:22:10;;;;;;;47.80;35.92;;;;;;;12.21;100.00;101841.50;4968821;28;20082;-65
2022/10/31 09:24:36;;;;;;;46.97;35.65;;;;;;;12.31;100.00;101821.06;4965416;28;20331;-66
2022/10/31 09:27:01;;;;;;;44.28;34.55;;;;;;;12.37;100.00;101818.72;4964980;28;20474;-66
2022/10/31 09:29:26;;;;;;;41.25;33.00;;;;;;;12.44;100.00;101809.44;4984332;28;20034;-65
2022/10/31 09:31:51;;;;;;;41.55;33.58;;;;;;;12.49;100.00;101802.72;4982695;28;20034;-65
2022/10/31 09:34:17;;;;;;;45.78;34.85;;;;;;;12.53;100.00;101809.81;4983865;28;20033;-65
2022/10/31 09:36:43;;;;;;;47.40;36.47;;;;;;;12.61;100.00;101786.69;4950370;28;20031;-65
2022/10/31 09:39:09;;;;;;;44.55;35.58;;;;;;;12.68;100.00;101775.72;4949007;28;20027;-65
2022/10/31 09:41:59;;;;;;;46.13;35.45;;;;;;;12.73;100.00;101768.09;4958844;28;20031;-65
2022/10/31 09:44:39;;;;;;;44.58;33.92;;;;;;;12.76;100.00;101754.31;4947632;28;20518;-65
2022/10/31 09:47:27;;;;;;;42.25;32.75;;;;;;;12.77;100.00;101761.31;4957256;28;20030;-65
2022/10/31 09:50:19;;;;;;;41.80;34.67;;;;;;;12.78;100.00;101773.47;4966629;28;20053;-65
2022/10/31 09:52:49;;;;;;;;;;;;;;;12.79;100.00;101775.25;4965481;28;20473;-65
2022/10/31 09:55:20;;;;;;;40.30;31.47;;;;;;;12.81;100.00;101776.19;4961917;28;19910;-65
2022/10/31 09:57:47;;;;;;;43.42;34.10;;;;;;;12.83;100.00;101771.94;4967035;28;21079;-66
2022/10/31 10:00:21;;;;;;;45.53;35.03;;;;;;;12.87;100.00;101773.81;4964049;28;20065;-66
2022/10/31 10:02:52;;;;;;;47.92;34.42;;;;;;;12.88;100.00;101774.72;4958392;28;20430;-65
2022/10/31 10:05:33;;;;;;;44.72;33.65;;;;;;;12.91;100.00;101767.91;4963937;28;20060;-65
2022/10/31 10:08:01;;;;;;;51.80;35.53;;;;;;;12.93;100.00;101757.56;4960569;28;20031;-65
2022/10/31 10:10:40;;;;;;;44.13;33.72;;;;;;;12.95;100.00;101751.56;4958174;28;20056;-65
2022/10/31 10:13:11;;;;;;;50.90;36.38;;;;;;;13.01;100.00;101755.22;4963628;28;20203;-65
2022/10/31 10:15:40;;;;;;;48.08;34.90;;;;;;;13.05;100.00;101739.81;4954478;28;20027;-65
2022/10/31 10:18:29;;;;;;;44.20;33.28;;;;;;;13.13;100.00;101734.84;4963632;28;20026;-65
2022/10/31 10:21:05;;;;;;;43.33;32.03;;;;;;;13.24;100.00;101739.56;4957184;28;20031;-65
2022/10/31 10:24:07;;;;;;;37.78;30.83;;;;;;;13.32;100.00;101733.81;4964392;28;20031;-66
2022/10/31 10:26:43;;;;;;;44.55;31.60;;;;;;;13.39;100.00;101732.28;4962282;28;20022;-66
2022/10/31 10:29:34;;;;;;;42.72;32.40;;;;;;;13.46;100.00;101722.97;4963044;28;20104;-65
2022/10/31 10:32:01;;;;;;;;;;;;;;;13.51;100.00;101716.19;4964884;28;20051;-65
2022/10/31 10:34:36;;;;;;;39.85;31.67;;;;;;;13.56;100.00;101709.47;4966025;28;20318;-65
2022/10/31 10:37:37;;;;;;;44.50;33.63;;;;;;;13.62;100.00;101703.56;4964144;28;20027;-65
2022/10/31 10:40:16;;;;;;;42.53;32.70;;;;;;;13.68;100.00;101708.09;4962546;28;20133;-65
2022/10/31 10:48:34;;;;;;;42.97;31.35;;;;;;;13.86;100.00;101720.84;4958689;28;20034;-65
2022/10/31 10:51:01;;;;;;;44.08;31.60;;;;;;;13.91;100.00;101727.09;4959570;28;20372;-65
2022/10/31 10:53:59;;;;;;;43.33;31.90;;;;;;;13.97;100.00;101715.09;4965992;28;20035;-65
2022/10/31 10:56:44;;;;;;;44.67;32.45;;;;;;;14.04;100.00;101711.84;4963718;28;20030;-66
2022/10/31 10:59:15;;;;;;;51.15;33.80;;;;;;;14.10;100.00;101696.41;4972572;28;20259;-65
2022/10/31 11:01:41;;;;;;;48.53;33.63;;;;;;;14.16;100.00;101690.50;4977803;28;20026;-65
2022/10/31 11:04:30;;;;;;;42.03;30.60;;;;;;;14.22;100.00;101684.59;4978390;28;20023;-65
2022/10/31 11:07:07;;;;;;;45.30;32.58;;;;;;;14.27;100.00;101688.22;4958366;28;20031;-65
2022/10/31 11:09:33;;;;;;;46.17;33.47;;;;;;;14.30;100.00;101688.31;4962731;28;20483;-66
2022/10/31 11:11:59;;;;;;;47.58;33.90;;;;;;;14.35;100.00;101691.94;4969763;28;20035;-65
2022/10/31 11:14:26;;;;;;;40.17;32.92;;;;;;;14.40;100.00;101686.88;4969592;28;20463;-65
2022/10/31 11:17:07;;;;;;;39.95;31.92;;;;;;;14.46;100.00;101688.78;4951897;28;20032;-65
2022/10/31 11:19:32;;;;;;;;;;;;;;;14.50;100.00;101688.91;4970389;28;20041;-65